createdAt,value
2019-02-27T00:00:31.313Z,6.50
2019-02-27T00:03:01.298Z,6.20
2019-02-27T00:05:30.914Z,6.43
2019-02-27T00:08:00.333Z,6.00
2019-02-27T00:10:29.729Z,5.90
2019-02-27T00:12:59.283Z,5.97
2019-02-27T00:15:28.749Z,6.00
2019-02-27T00:17:58.227Z,5.80
2019-02-27T00:20:27.637Z,5.47
2019-02-27T00:22:56.990Z,5.93
2019-02-27T00:25:26.628Z,6.23
2019-02-27T00:27:56.048Z,6.37
2019-02-27T00:30:25.494Z,6.00
2019-02-27T00:32:57.436Z,6.13
2019-02-27T00:35:26.006Z,6.30
2019-02-27T00:37:55.461Z,5.30
2019-02-27T00:40:24.899Z,5.37
2019-02-27T00:42:54.967Z,5.77
2019-02-27T00:45:24.763Z,6.20
2019-02-27T00:47:54.417Z,5.73
2019-02-27T00:50:27.159Z,5.55
2019-02-27T00:52:57.032Z,5.10
2019-02-27T00:55:27.376Z,5.87
2019-02-27T00:57:57.371Z,4.87
2019-02-27T01:00:27.090Z,4.47
2019-02-27T01:03:02.796Z,4.50
2019-02-27T01:05:40.873Z,4.92
2019-02-27T01:08:10.551Z,4.37
2019-02-27T01:10:40.075Z,4.63
2019-02-27T01:13:09.843Z,4.80
2019-02-27T01:15:41.827Z,4.37
2019-02-27T01:18:10.357Z,4.53
2019-02-27T01:20:39.772Z,5.07
2019-02-27T01:23:11.588Z,5.30
2019-02-27T01:25:40.617Z,5.63
2019-02-27T01:28:11.068Z,5.67
2019-02-27T01:30:42.845Z,4.67
2019-02-27T01:33:12.561Z,4.57
2019-02-27T01:35:42.384Z,3.90
2019-02-27T01:38:11.942Z,3.70
2019-02-27T01:40:41.318Z,3.73
2019-02-27T01:43:10.912Z,4.23
2019-02-27T01:45:40.339Z,3.77
2019-02-27T01:48:09.993Z,3.93
2019-02-27T01:50:39.510Z,4.40
2019-02-27T01:53:09.990Z,3.50
2019-02-27T01:55:39.379Z,4.10
2019-02-27T01:58:09.509Z,4.10
2019-02-27T02:00:40.330Z,4.33
2019-02-27T02:03:11.164Z,4.23
2019-02-27T02:05:41.065Z,3.87
2019-02-27T02:08:13.469Z,4.30
2019-02-27T02:10:41.834Z,4.30
2019-02-27T02:13:19.366Z,4.00
2019-02-27T02:16:05.545Z,3.90
2019-02-27T02:19:01.602Z,4.47
2019-02-27T02:21:58.332Z,3.80
2019-02-27T02:25:05.059Z,3.67
2019-02-27T02:28:14.706Z,3.77
2019-02-27T02:30:53.358Z,4.10
2019-02-27T02:34:05.489Z,3.77
2019-02-27T02:37:02.501Z,4.20
2019-02-27T02:39:54.523Z,4.05
2019-02-27T02:43:05.997Z,3.87
2019-02-27T02:46:08.636Z,4.43
2019-02-27T02:48:42.876Z,4.43
2019-02-27T02:51:51.602Z,4.55
2019-02-27T02:55:15.209Z,4.30
2019-02-27T02:58:14.283Z,4.33
2019-02-27T03:01:03.172Z,4.17
2019-02-27T03:03:42.651Z,4.90
2019-02-27T03:06:35.070Z,5.53
2019-02-27T03:09:21.794Z,4.53
2019-02-27T03:12:22.600Z,5.35
2019-02-27T03:15:18.753Z,5.63
2019-02-27T03:18:10.455Z,4.80
2019-02-27T03:21:28.989Z,4.93
2019-02-27T03:24:31.432Z,5.60
2019-02-27T03:27:30.541Z,4.73
2019-02-27T03:30:10.577Z,5.10
2019-02-27T03:33:08.342Z,4.47
2019-02-27T03:36:20.945Z,3.70
2019-02-27T03:39:18.781Z,3.70
2019-02-27T03:42:10.361Z,3.77
2019-02-27T03:45:13.990Z,3.80
2019-02-27T03:48:08.179Z,3.70
2019-02-27T03:50:49.907Z,4.03
2019-02-27T03:53:38.207Z,3.90
2019-02-27T03:56:32.593Z,4.03
2019-02-27T03:59:27.181Z,4.00
2019-02-27T04:02:10.080Z,4.27
2019-02-27T04:05:05.165Z,4.33
2019-02-27T04:07:36.997Z,4.67
2019-02-27T04:10:06.909Z,4.70
2019-02-27T04:12:36.421Z,3.77
2019-02-27T04:15:09.036Z,4.17
2019-02-27T04:17:36.784Z,4.17
2019-02-27T04:20:14.574Z,4.50
2019-02-27T04:22:39.681Z,4.63
2019-02-27T04:25:16.164Z,4.83
2019-02-27T04:27:45.586Z,4.67
2019-02-27T04:30:16.624Z,4.07
2019-02-27T04:32:48.747Z,4.47
2019-02-27T04:35:18.388Z,4.43
2019-02-27T04:37:48.760Z,3.55
2019-02-27T04:40:21.445Z,4.35
2019-02-27T04:42:50.828Z,3.97
2019-02-27T04:45:20.215Z,3.40
2019-02-27T04:47:49.621Z,3.50
2019-02-27T04:50:20.832Z,3.00
2019-02-27T04:52:57.625Z,3.00
2019-02-27T04:55:24.759Z,2.87
2019-02-27T04:57:55.885Z,3.00
2019-02-27T05:00:26.369Z,2.80
2019-02-27T05:02:59.010Z,2.90
2019-02-27T05:05:28.474Z,2.70
2019-02-27T05:07:57.829Z,2.80
2019-02-27T05:10:27.321Z,2.17
2019-02-27T05:12:56.700Z,2.70
2019-02-27T05:15:26.143Z,3.00
2019-02-27T05:18:02.552Z,3.13
2019-02-27T05:20:31.941Z,2.80
2019-02-27T05:23:01.723Z,3.40
2019-02-27T05:25:31.802Z,3.47
2019-02-27T05:28:04.639Z,3.53
2019-02-27T05:30:34.547Z,4.33
2019-02-27T05:33:06.252Z,4.58
2019-02-27T05:35:49.316Z,4.10
2019-02-27T05:38:19.168Z,4.13
2019-02-27T05:40:48.718Z,4.23
2019-02-27T05:43:18.370Z,4.27
2019-02-27T05:45:47.905Z,3.70
2019-02-27T05:48:19.884Z,4.00
2019-02-27T05:50:49.166Z,3.50
2019-02-27T05:53:22.995Z,4.07
2019-02-27T05:55:56.127Z,5.00
2019-02-27T05:58:31.658Z,4.50
2019-02-27T06:01:02.042Z,4.77
2019-02-27T06:03:34.723Z,4.45
2019-02-27T06:06:11.820Z,4.23
2019-02-27T06:08:58.320Z,4.55
2019-02-27T06:11:29.566Z,4.57
2019-02-27T06:16:56.124Z,4.73
2019-02-27T06:19:33.317Z,4.83
2019-02-27T06:22:01.080Z,4.40
2019-02-27T06:24:30.877Z,4.40
2019-02-27T06:27:06.081Z,4.57
2019-02-27T06:29:33.056Z,4.80
2019-02-27T06:32:03.972Z,4.22
2019-02-27T06:34:59.075Z,4.30
2019-02-27T06:37:26.293Z,3.93
2019-02-27T06:39:59.117Z,3.67
2019-02-27T06:42:29.935Z,3.90
2019-02-27T06:45:02.615Z,3.57
2019-02-27T06:47:32.995Z,3.13
2019-02-27T06:50:05.667Z,3.13
2019-02-27T06:52:37.011Z,3.20
2019-02-27T06:55:13.068Z,3.40
2019-02-27T06:57:42.585Z,3.07
2019-02-27T07:01:16.828Z,3.07
2019-02-27T07:03:46.990Z,3.58
2019-02-27T07:06:21.304Z,3.22
2019-02-27T07:08:49.035Z,3.50
2019-02-27T07:11:19.106Z,3.15
2019-02-27T07:13:48.843Z,3.60
2019-02-27T07:16:20.520Z,3.13
2019-02-27T07:18:50.172Z,3.40
2019-02-27T07:21:19.846Z,3.67
2019-02-27T07:23:49.695Z,2.90
2019-02-27T07:26:19.412Z,3.37
2019-02-27T07:28:49.498Z,3.83
2019-02-27T07:31:23.409Z,4.12
2019-02-27T07:33:53.069Z,3.55
2019-02-27T07:36:22.788Z,3.60
2019-02-27T07:38:54.314Z,3.33
2019-02-27T07:41:24.221Z,4.50
2019-02-27T07:43:53.700Z,3.83
2019-02-27T07:46:23.275Z,3.83
2019-02-27T07:48:56.310Z,3.62
2019-02-27T07:51:24.260Z,3.00
2019-02-27T07:53:54.537Z,3.40
2019-02-27T07:56:24.299Z,3.37
2019-02-27T07:58:54.248Z,3.60
2019-02-27T08:01:25.513Z,3.50
2019-02-27T08:03:57.155Z,3.77
2019-02-27T08:06:26.942Z,3.37
2019-02-27T08:08:58.030Z,3.20
2019-02-27T08:11:28.420Z,3.67
2019-02-27T08:14:00.726Z,3.45
2019-02-27T08:16:29.901Z,3.70
2019-02-27T08:19:02.694Z,3.52
2019-02-27T08:21:34.239Z,4.03
2019-02-27T08:24:07.684Z,3.70
2019-02-27T08:26:40.290Z,4.23
2019-02-27T08:29:12.889Z,3.40
2019-02-27T08:31:42.538Z,3.83
2019-02-27T08:34:14.438Z,3.55
2019-02-27T08:36:44.470Z,3.33
2019-02-27T08:39:14.858Z,3.40
2019-02-27T08:41:44.525Z,3.60
2019-02-27T08:44:22.415Z,4.37
2019-02-27T08:46:51.785Z,3.27
2019-02-27T08:49:24.034Z,4.97
2019-02-27T08:51:52.977Z,3.03
2019-02-27T08:54:22.786Z,2.97
2019-02-27T08:56:52.476Z,3.37
2019-02-27T08:59:23.869Z,3.87
2019-02-27T09:01:56.282Z,4.40
2019-02-27T09:04:29.388Z,3.60
2019-02-27T09:07:02.802Z,3.57
2019-02-27T09:09:32.559Z,3.73
2019-02-27T09:12:03.151Z,3.27
2019-02-27T09:14:38.304Z,3.73
2019-02-27T09:17:08.630Z,3.67
2019-02-27T09:19:46.615Z,4.10
2019-02-27T09:22:19.061Z,4.12
2019-02-27T09:24:48.778Z,4.00
2019-02-27T09:27:20.135Z,5.70
2019-02-27T09:30:02.640Z,6.20
2019-02-27T09:32:30.114Z,6.50
2019-02-27T09:35:00.266Z,6.43
2019-02-27T09:37:30.844Z,7.30
2019-02-27T09:40:04.814Z,8.48
2019-02-27T09:42:36.714Z,8.37
2019-02-27T09:45:21.814Z,8.30
2019-02-27T09:47:51.651Z,7.00
2019-02-27T09:50:47.593Z,6.97
2019-02-27T09:53:21.354Z,4.13
2019-02-27T09:55:54.588Z,4.63
2019-02-27T09:58:24.268Z,4.00
2019-02-27T10:01:03.122Z,2.67
2019-02-27T10:03:32.948Z,3.27
2019-02-27T10:06:04.303Z,2.93
2019-02-27T10:08:34.570Z,3.20
2019-02-27T10:11:04.191Z,3.33
2019-02-27T10:13:35.466Z,3.15
2019-02-27T10:16:05.800Z,2.67
2019-02-27T10:18:35.589Z,2.95
2019-02-27T10:21:09.443Z,3.20
2019-02-27T10:23:46.301Z,2.62
2019-02-27T10:26:16.667Z,2.53
2019-02-27T10:28:50.949Z,2.70
2019-02-27T10:31:22.759Z,2.77
2019-02-27T10:33:56.369Z,4.73
2019-02-27T10:36:26.565Z,5.13
2019-02-27T10:38:56.167Z,4.33
2019-02-27T10:41:27.542Z,5.03
2019-02-27T10:44:00.335Z,4.83
2019-02-27T10:46:30.007Z,4.60
2019-02-27T10:49:03.511Z,3.77
2019-02-27T10:51:33.246Z,4.10
2019-02-27T10:54:05.402Z,3.43
2019-02-27T10:56:38.576Z,3.77
2019-02-27T10:59:08.645Z,3.77
2019-02-27T11:01:38.670Z,3.70
2019-02-27T11:04:08.806Z,3.73
2019-02-27T11:09:46.542Z,2.70
2019-02-27T11:12:20.301Z,3.03
2019-02-27T11:14:58.624Z,3.30
2019-02-27T11:17:34.376Z,3.30
2019-02-27T11:20:12.347Z,3.47
2019-02-27T11:22:42.631Z,3.58
2019-02-27T11:29:14.504Z,3.63
2019-02-27T11:30:48.227Z,3.20
2019-02-27T11:33:25.845Z,3.03
2019-02-27T11:35:56.024Z,3.15
2019-02-27T11:38:29.073Z,3.50
2019-02-27T11:41:00.723Z,3.37
2019-02-27T11:43:30.493Z,3.17
2019-02-27T11:46:02.275Z,2.90
2019-02-27T11:48:36.553Z,2.87
2019-02-27T11:51:06.482Z,3.70
2019-02-27T11:53:36.578Z,2.90
2019-02-27T11:56:09.568Z,3.62
2019-02-27T11:58:39.419Z,3.50
2019-02-27T12:01:12.243Z,2.93
2019-02-27T12:04:03.038Z,3.47
2019-02-27T12:06:32.939Z,3.05
2019-02-27T12:09:04.586Z,3.52
2019-02-27T12:11:34.401Z,3.93
2019-02-27T12:14:06.567Z,3.30
2019-02-27T12:16:36.898Z,3.77
2019-02-27T12:19:08.706Z,3.65
2019-02-27T12:21:41.798Z,3.60
2019-02-27T12:24:11.490Z,3.87
2019-02-27T12:26:41.529Z,3.80
2019-02-27T12:29:11.606Z,4.40
2019-02-27T12:31:48.067Z,4.63
2019-02-27T12:34:14.453Z,4.20
2019-02-27T12:36:45.532Z,5.00
2019-02-27T12:39:16.066Z,4.00
2019-02-27T12:41:45.757Z,5.23
2019-02-27T12:44:15.283Z,4.47
2019-02-27T12:46:46.615Z,4.53
2019-02-27T12:49:16.917Z,4.83
2019-02-27T12:51:48.975Z,4.23
2019-02-27T12:54:19.415Z,4.03
2019-02-27T12:56:49.309Z,3.70
2019-02-27T12:59:23.865Z,4.33
2019-02-27T13:01:53.518Z,3.67
2019-02-27T13:04:23.276Z,3.97
2019-02-27T13:06:52.830Z,3.43
2019-02-27T13:09:24.583Z,3.47
2019-02-27T13:11:54.004Z,3.53
2019-02-27T13:14:23.510Z,2.90
2019-02-27T13:16:52.914Z,3.60
2019-02-27T13:19:22.471Z,2.67
2019-02-27T13:21:52.314Z,3.37
2019-02-27T13:24:23.270Z,3.17
2019-02-27T13:26:53.116Z,3.13
2019-02-27T13:29:22.815Z,2.60
2019-02-27T13:31:52.470Z,3.27
2019-02-27T13:34:22.243Z,2.67
2019-02-27T13:36:51.974Z,3.10
2019-02-27T13:39:25.184Z,3.30
2019-02-27T13:41:53.160Z,2.63
2019-02-27T13:44:23.106Z,2.60
2019-02-27T13:46:54.502Z,3.20
2019-02-27T13:49:25.911Z,3.33
2019-02-27T13:51:55.846Z,3.10
2019-02-27T13:54:25.677Z,2.80
2019-02-27T13:56:56.312Z,3.57
2019-02-27T13:59:25.879Z,3.00
2019-02-27T14:01:55.786Z,3.27
2019-02-27T14:04:25.464Z,2.93
2019-02-27T14:06:55.851Z,3.47
2019-02-27T14:09:25.392Z,3.37
2019-02-27T14:11:58.735Z,3.90
2019-02-27T14:14:28.911Z,3.40
2019-02-27T14:16:58.919Z,4.43
2019-02-27T14:19:28.916Z,3.33
2019-02-27T14:22:08.257Z,3.50
2019-02-27T14:24:38.339Z,3.35
2019-02-27T14:27:08.843Z,3.40
2019-02-27T14:29:41.301Z,3.03
2019-02-27T14:32:11.152Z,3.20
2019-02-27T14:34:40.649Z,2.90
2019-02-27T14:37:10.336Z,3.27
2019-02-27T14:39:39.948Z,2.57
2019-02-27T14:42:10.326Z,4.17
2019-02-27T14:44:40.040Z,2.70
2019-02-27T14:47:16.430Z,2.45
2019-02-27T14:49:47.108Z,3.03
2019-02-27T14:52:16.874Z,3.13
2019-02-27T14:54:46.558Z,2.93
2019-02-27T14:57:16.749Z,2.92
2019-02-27T14:59:46.440Z,2.70
2019-02-27T15:02:16.508Z,2.87
2019-02-27T15:04:46.543Z,1.97
2019-02-27T15:07:16.117Z,2.00
2019-02-27T15:09:50.663Z,2.63
2019-02-27T15:12:20.542Z,2.58
2019-02-27T15:14:50.035Z,2.30
2019-02-27T15:17:20.435Z,2.22
2019-02-27T15:19:52.107Z,2.30
2019-02-27T15:22:26.047Z,2.25
2019-02-27T15:24:55.593Z,2.93
2019-02-27T15:27:25.691Z,2.80
2019-02-27T15:29:55.411Z,2.50
2019-02-27T15:32:26.828Z,2.70
2019-02-27T15:34:57.225Z,2.83
2019-02-27T15:37:26.928Z,2.45
2019-02-27T15:39:56.440Z,2.03
2019-02-27T15:42:26.338Z,2.50
2019-02-27T15:44:56.263Z,2.20
2019-02-27T15:47:27.041Z,2.60
2019-02-27T15:49:57.307Z,2.20
2019-02-27T15:52:28.629Z,2.60
2019-02-27T15:54:59.283Z,2.10
2019-02-27T15:57:29.396Z,2.77
2019-02-27T15:59:59.795Z,2.15
2019-02-27T16:02:29.492Z,2.02
2019-02-27T16:04:59.459Z,2.17
2019-02-27T16:07:39.627Z,2.37
2019-02-27T16:10:22.230Z,2.03
2019-02-27T16:12:52.095Z,2.00
2019-02-27T16:15:26.656Z,2.45
2019-02-27T16:17:56.443Z,2.23
2019-02-27T16:20:27.680Z,1.97
2019-02-27T16:22:58.309Z,2.03
2019-02-27T16:25:31.245Z,2.07
2019-02-27T16:28:18.306Z,2.53
2019-02-27T16:30:48.239Z,2.47
2019-02-27T16:33:23.870Z,2.53
2019-02-27T16:35:55.354Z,2.70
2019-02-27T16:38:28.326Z,2.90
2019-02-27T16:41:06.588Z,2.87
2019-02-27T16:43:37.636Z,2.12
2019-02-27T16:46:09.061Z,1.60
2019-02-27T16:48:52.112Z,1.67
2019-02-27T16:51:23.321Z,2.10
2019-02-27T16:53:53.976Z,2.70
2019-02-27T16:56:25.285Z,2.97
2019-02-27T16:58:56.031Z,1.80
2019-02-27T17:01:26.266Z,2.20
2019-02-27T17:04:00.419Z,2.27
2019-02-27T17:06:28.600Z,2.33
2019-02-27T17:09:01.269Z,2.77
2019-02-27T17:11:32.535Z,2.10
2019-02-27T17:14:24.385Z,2.73
2019-02-27T17:16:53.441Z,2.73
2019-02-27T17:19:24.390Z,1.87
2019-02-27T17:21:58.410Z,2.17
2019-02-27T17:24:25.039Z,2.13
2019-02-27T17:26:54.671Z,2.87
2019-02-27T17:29:26.503Z,2.33
2019-02-27T17:31:56.409Z,3.00
2019-02-27T17:34:25.873Z,3.30
2019-02-27T17:36:55.554Z,3.30
2019-02-27T17:39:27.644Z,3.60
2019-02-27T17:41:56.210Z,3.45
2019-02-27T17:44:25.938Z,4.37
2019-02-27T17:46:55.593Z,4.67
2019-02-27T17:49:25.407Z,4.53
2019-02-27T17:51:57.212Z,7.30
2019-02-27T17:54:31.356Z,5.67
2019-02-27T17:56:59.763Z,4.33
2019-02-27T17:59:29.160Z,5.40
2019-02-27T18:01:59.314Z,5.80
2019-02-27T18:04:29.778Z,6.17
2019-02-27T18:07:00.646Z,5.97
2019-02-27T18:09:30.337Z,6.00
2019-02-27T18:11:59.911Z,5.17
2019-02-27T18:14:29.663Z,5.67
2019-02-27T18:16:59.523Z,5.35
2019-02-27T18:19:29.701Z,4.93
2019-02-27T18:21:59.294Z,5.37
2019-02-27T18:24:34.187Z,5.30
2019-02-27T18:27:02.499Z,5.77
2019-02-27T18:29:31.888Z,5.97
2019-02-27T18:32:06.119Z,6.50
2019-02-27T18:34:32.497Z,6.13
2019-02-27T18:37:02.196Z,6.43
2019-02-27T18:39:36.388Z,5.77
2019-02-27T18:42:05.597Z,6.67
2019-02-27T18:44:35.036Z,6.87
2019-02-27T18:47:04.847Z,6.13
2019-02-27T18:49:55.286Z,5.40
2019-02-27T18:52:28.429Z,5.40
2019-02-27T18:54:58.094Z,6.37
2019-02-27T18:57:30.501Z,6.63
2019-02-27T19:00:02.495Z,6.77
2019-02-27T19:02:32.001Z,6.03
2019-02-27T19:05:01.693Z,6.73
2019-02-27T19:07:31.159Z,7.63
2019-02-27T19:10:09.762Z,7.47
2019-02-27T19:12:39.314Z,7.67
2019-02-27T19:15:19.019Z,7.23
2019-02-27T19:17:50.493Z,7.97
2019-02-27T19:20:28.791Z,9.03
2019-02-27T19:23:00.400Z,9.63
2019-02-27T19:25:34.183Z,10.38
2019-02-27T19:28:01.713Z,9.47
2019-02-27T19:30:31.205Z,9.33
2019-02-27T19:33:02.041Z,8.60
2019-02-27T19:35:32.028Z,9.03
2019-02-27T19:38:01.418Z,8.93
2019-02-27T19:40:31.355Z,8.57
2019-02-27T19:43:05.938Z,8.93
2019-02-27T19:45:42.675Z,7.92
2019-02-27T19:48:12.478Z,9.58
2019-02-27T19:50:49.549Z,8.80
2019-02-27T19:53:23.248Z,10.00
2019-02-27T19:55:53.830Z,9.00
2019-02-27T19:58:23.192Z,10.18
2019-02-27T20:00:54.896Z,9.97
2019-02-27T20:03:34.876Z,10.30
2019-02-27T20:06:07.129Z,11.83
2019-02-27T20:08:44.459Z,11.48
2019-02-27T20:11:11.593Z,10.03
2019-02-27T20:13:44.628Z,10.67
2019-02-27T20:16:13.978Z,10.20
2019-02-27T20:18:44.271Z,10.35
2019-02-27T20:21:14.143Z,9.40
2019-02-27T20:23:43.618Z,8.60
2019-02-27T20:26:14.234Z,8.00
2019-02-27T20:28:44.866Z,8.33
2019-02-27T20:31:24.217Z,7.75
2019-02-27T20:33:56.333Z,8.63
2019-02-27T20:36:37.187Z,8.73
2019-02-27T20:39:09.231Z,7.80
2019-02-27T20:41:49.065Z,7.83
2019-02-27T20:44:19.395Z,8.70
2019-02-27T20:46:49.342Z,7.97
2019-02-27T20:49:21.645Z,9.18
2019-02-27T20:51:51.116Z,8.83
2019-02-27T20:54:20.738Z,9.53
2019-02-27T20:56:55.470Z,9.47
2019-02-27T20:59:29.103Z,9.50
2019-02-27T21:01:58.693Z,9.10
2019-02-27T21:04:35.976Z,9.80
2019-02-27T21:07:05.438Z,9.90
2019-02-27T21:09:35.121Z,9.73
2019-02-27T21:12:06.564Z,9.27
2019-02-27T21:14:35.584Z,8.83
2019-02-27T21:17:05.306Z,9.48
2019-02-27T21:19:37.274Z,9.20
2019-02-27T21:22:06.110Z,9.40
2019-02-27T21:24:37.273Z,8.80
2019-02-27T21:27:06.598Z,8.80
2019-02-27T21:29:36.313Z,10.10
2019-02-27T21:32:05.806Z,9.90
2019-02-27T21:34:35.275Z,10.57
2019-02-27T21:37:09.558Z,10.38
2019-02-27T21:39:35.789Z,9.83
2019-02-27T21:42:05.242Z,10.53
2019-02-27T21:44:34.723Z,10.63
2019-02-27T21:47:04.122Z,10.63
2019-02-27T21:49:37.220Z,11.23
2019-02-27T21:52:26.772Z,10.97
2019-02-27T21:55:00.359Z,11.60
2019-02-27T21:57:37.919Z,11.03
2019-02-27T22:00:21.708Z,12.20
2019-02-27T22:02:53.145Z,12.23
2019-02-27T22:05:22.765Z,11.27
2019-02-27T22:07:52.490Z,12.10
2019-02-27T22:10:22.127Z,12.07
2019-02-27T22:12:51.737Z,13.73
2019-02-27T22:15:31.001Z,13.17
2019-02-27T22:18:02.857Z,13.10
2019-02-27T22:20:32.387Z,13.57
2019-02-27T22:23:02.150Z,13.47
2019-02-27T22:25:31.819Z,14.63
2019-02-27T22:28:01.510Z,12.87
2019-02-27T22:30:31.972Z,14.47
2019-02-27T22:33:02.078Z,13.95
2019-02-27T22:35:37.355Z,14.50
2019-02-27T22:38:03.061Z,14.33
2019-02-27T22:40:32.465Z,12.33
2019-02-27T22:43:01.939Z,13.80
2019-02-27T22:45:31.372Z,13.27
2019-02-27T22:48:00.766Z,14.30
2019-02-27T22:50:30.154Z,14.87
2019-02-27T22:52:59.573Z,15.10
2019-02-27T22:55:28.951Z,13.47
2019-02-27T22:57:58.675Z,14.27
2019-02-27T23:01:02.152Z,14.45
2019-02-27T23:03:36.888Z,13.50
2019-02-27T23:06:09.250Z,12.90
2019-02-27T23:08:37.826Z,13.07
2019-02-27T23:11:07.467Z,14.10
2019-02-27T23:13:37.052Z,14.60
2019-02-27T23:16:06.658Z,14.33
2019-02-27T23:18:37.381Z,14.55
2019-02-27T23:21:07.847Z,14.57
2019-02-27T23:23:37.572Z,13.97
2019-02-27T23:26:06.953Z,12.67
2019-02-27T23:28:36.613Z,13.75
2019-02-27T23:31:06.996Z,14.80
2019-02-27T23:33:36.786Z,14.35
2019-02-27T23:36:06.865Z,14.50
2019-02-27T23:38:36.941Z,14.10
2019-02-27T23:41:07.178Z,14.43
2019-02-27T23:43:37.503Z,14.58
2019-02-27T23:46:07.458Z,13.55
2019-02-27T23:48:37.335Z,13.95
2019-02-27T23:51:07.312Z,14.43
2019-02-27T23:53:37.399Z,13.70
2019-02-27T23:56:07.434Z,14.50
2019-02-27T23:58:37.469Z,14.20
